Time;durP1;ratioP1;P1;durP2;ratioP2;P2;SDS_P1;SDS_P2;PMS_P1;PMS_P2;Temp;Humidity;BMP_temperature;BMP_pressure;BME280_temperature;BME280_humidity;BME280_pressure;Samples;Min_cycle;Max_cycle;Signal;HPM_P1;HPM_P2
2022/08/17 00:00:44;;;;;;;7.18;3.75;;;;;;;24.87;nan;-24506.56;4955783;29;20182;-62
2022/08/17 00:03:24;;;;;;;9.00;3.78;;;;;;;24.76;nan;-24503.53;4956089;29;20665;-61
2022/08/17 00:06:02;;;;;;;6.13;3.85;;;;;;;24.81;nan;-24505.03;4956094;29;20186;-61
2022/08/17 00:08:34;;;;;;;5.45;3.42;;;;;;;24.85;nan;-24506.00;4956913;29;20641;-63
2022/08/17 00:11:00;;;;;;;6.60;3.60;;;;;;;24.51;nan;-24496.78;4956044;29;20189;-64
2022/08/17 00:13:36;;;;;;;5.60;3.85;;;;;;;24.46;nan;-24495.53;4955011;29;20194;-61
2022/08/17 00:16:08;;;;;;;4.85;3.53;;;;;;;24.73;nan;-24502.84;4955949;29;20755;-61
2022/08/17 00:18:34;;;;;;;4.65;3.42;;;;;;;24.60;nan;-24499.25;4955603;29;20213;-62
2022/08/17 00:21:01;;;;;;;5.53;3.35;;;;;;;24.32;nan;-24491.69;4955880;29;20532;-62
2022/08/17 00:23:27;;;;;;;5.65;3.30;;;;;;;24.25;nan;-24489.75;4955107;28;20697;-62
2022/08/17 00:25:53;;;;;;;6.25;3.60;;;;;;;24.20;nan;-24488.50;4956309;29;20178;-62
2022/08/17 00:28:19;;;;;;;8.35;3.58;;;;;;;24.44;nan;-24494.84;4955419;29;20194;-62
2022/08/17 00:30:47;;;;;;;4.85;3.17;;;;;;;24.01;nan;-24483.25;4955972;29;20182;-65
2022/08/17 00:33:20;;;;;;;6.40;3.60;;;;;;;23.98;nan;-24482.28;4955141;29;20197;-63
2022/08/17 00:35:47;;;;;;;5.55;3.80;;;;;;;24.40;nan;-24493.88;4955831;29;20228;-63
2022/08/17 00:38:13;;;;;;;6.40;3.70;;;;;;;24.35;nan;-24492.34;4955450;29;20194;-65
2022/08/17 00:40:48;;;;;;;5.38;3.30;;;;;;;24.33;nan;-24491.94;4953336;28;20200;-65
2022/08/17 00:43:34;;;;;;;5.72;3.38;;;;;;;24.29;nan;-24490.84;4955406;29;20211;-63
2022/08/17 00:46:04;;;;;;;7.55;3.78;;;;;;;24.02;nan;-24483.53;4954496;29;20193;-62
2022/08/17 00:48:30;;;;;;;6.82;3.85;;;;;;;24.03;nan;-24483.66;4953711;29;20663;-62
2022/08/17 00:51:16;;;;;;;5.72;3.58;;;;;;;23.97;nan;-24482.00;4954689;29;20206;-64
2022/08/17 00:53:50;;;;;;;5.00;3.10;;;;;;;24.37;nan;-24492.91;4954246;29;20184;-62
2022/08/17 00:56:26;;;;;;;5.25;3.45;;;;;;;24.07;nan;-24484.78;4954214;29;20264;-64
2022/08/17 00:58:53;;;;;;;4.78;3.30;;;;;;;23.93;nan;-24480.91;4947170;29;20201;-64
2022/08/17 01:01:20;;;;;;;6.50;3.60;;;;;;;23.88;nan;-24479.53;4954429;29;20547;-64
2022/08/17 01:03:46;;;;;;;7.47;3.45;;;;;;;24.00;nan;-24482.84;4954941;29;20178;-65
2022/08/17 01:06:12;;;;;;;5.22;3.38;;;;;;;23.87;nan;-24479.38;4935549;29;20178;-61
2022/08/17 01:08:39;;;;;;;4.75;3.38;;;;;;;23.91;nan;-24480.50;4935196;29;20241;-64
2022/08/17 01:11:06;;;;;;;5.85;3.50;;;;;;;24.07;nan;-24484.91;4949444;29;20220;-61
2022/08/17 01:13:42;;;;;;;7.15;3.47;;;;;;;23.89;nan;-24479.94;4953205;29;20189;-60
2022/08/17 01:16:37;;;;;;;4.35;3.13;;;;;;;24.29;nan;-24490.84;4954774;29;20633;-63
2022/08/17 01:19:12;;;;;;;4.95;3.45;;;;;;;24.18;nan;-24487.94;4952992;29;20213;-63
2022/08/17 01:22:02;;;;;;;4.88;3.13;;;;;;;24.23;nan;-24489.06;4954901;29;20174;-65
2022/08/17 01:24:28;;;;;;;5.22;3.22;;;;;;;24.17;nan;-24487.53;4954995;29;20629;-62
2022/08/17 01:26:53;;;;;;;6.60;3.72;;;;;;;23.92;nan;-24480.63;4953977;29;20186;-62
2022/08/17 01:29:20;;;;;;;6.05;3.22;;;;;;;23.89;nan;-24479.81;4955040;29;20256;-62
2022/08/17 01:31:51;;;;;;;6.13;3.17;;;;;;;23.87;nan;-24479.25;4954297;29;20673;-62
2022/08/17 01:34:17;;;;;;;6.82;3.90;;;;;;;24.16;nan;-24487.41;4953495;28;20257;-66
2022/08/17 01:36:45;;;;;;;6.03;3.30;;;;;;;23.92;nan;-24480.63;4954039;29;20197;-62
2022/08/17 01:39:22;;;;;;;4.88;3.45;;;;;;;24.05;nan;-24484.34;4953297;29;20198;-63
2022/08/17 01:41:51;;;;;;;4.70;3.42;;;;;;;23.80;nan;-24477.31;4954305;29;20570;-64
2022/08/17 01:44:17;;;;;;;3.75;2.78;;;;;;;24.09;nan;-24485.47;4954620;28;20205;-61
2022/08/17 01:46:42;;;;;;;6.30;3.65;;;;;;;24.04;nan;-24484.09;4953584;29;20646;-63
2022/08/17 01:49:10;;;;;;;4.43;3.53;;;;;;;23.45;nan;-24467.78;4953579;29;20236;-64
2022/08/17 01:51:36;;;;;;;5.50;3.22;;;;;;;23.60;nan;-24471.94;4954533;29;20205;-62
2022/08/17 01:54:05;;;;;;;5.90;3.60;;;;;;;23.65;nan;-24473.47;4954114;29;20570;-62
2022/08/17 01:56:32;;;;;;;5.70;3.28;;;;;;;23.62;nan;-24472.50;4954539;29;20190;-63
2022/08/17 01:58:58;;;;;;;7.38;4.00;;;;;;;23.42;nan;-24467.09;4954052;29;20285;-62
2022/08/17 02:01:27;;;;;;;5.55;3.92;;;;;;;23.70;nan;-24474.84;4953956;29;20268;-65
2022/08/17 02:03:54;;;;;;;4.70;3.22;;;;;;;23.28;nan;-24463.25;4953963;29;20177;-63
2022/08/17 02:06:20;;;;;;;4.50;3.08;;;;;;;23.56;nan;-24470.97;4954363;29;20171;-64
2022/08/17 02:08:46;;;;;;;5.00;3.38;;;;;;;23.46;nan;-24468.22;4954383;29;20170;-65
2022/08/17 02:11:16;;;;;;;5.78;3.50;;;;;;;23.64;nan;-24473.19;4954263;29;20202;-63
2022/08/17 02:13:47;;;;;;;5.45;3.53;;;;;;;23.47;nan;-24468.50;4954507;29;20257;-63
2022/08/17 02:16:12;;;;;;;9.77;3.63;;;;;;;23.67;nan;-24474.00;4953486;29;20284;-62
2022/08/17 02:18:38;;;;;;;5.47;3.08;;;;;;;23.48;nan;-24468.78;4953085;29;20231;-63
2022/08/17 02:21:04;;;;;;;5.03;3.50;;;;;;;23.47;nan;-24468.50;4953401;29;20284;-64
2022/08/17 02:23:33;;;;;;;5.75;3.40;;;;;;;23.53;nan;-24470.00;4953118;28;20257;-63
2022/08/17 02:26:00;;;;;;;5.03;3.35;;;;;;;23.98;nan;-24482.28;4953346;29;20174;-62
2022/08/17 02:28:27;;;;;;;5.40;3.10;;;;;;;23.68;nan;-24474.16;4953192;28;20205;-64
2022/08/17 02:30:53;;;;;;;4.80;3.15;;;;;;;23.67;nan;-24473.88;4952864;29;20182;-63
2022/08/17 02:33:20;;;;;;;5.18;3.00;;;;;;;23.76;nan;-24476.50;4952470;29;20189;-65
2022/08/17 02:35:45;;;;;;;6.20;3.17;;;;;;;23.98;nan;-24482.28;4952846;29;20182;-64
2022/08/17 02:38:11;;;;;;;5.82;3.28;;;;;;;23.64;nan;-24473.19;4952154;29;20237;-65
2022/08/17 02:40:39;;;;;;;4.00;3.25;;;;;;;23.93;nan;-24480.91;4952723;29;20244;-64
2022/08/17 02:43:08;;;;;;;4.70;3.20;;;;;;;23.69;nan;-24474.56;4952930;29;20178;-65
2022/08/17 02:45:34;;;;;;;4.35;3.00;;;;;;;24.19;nan;-24488.22;4951982;29;20186;-65
2022/08/17 02:48:00;;;;;;;5.03;3.20;;;;;;;24.09;nan;-24485.47;4952711;29;20316;-62
2022/08/17 02:50:25;;;;;;;4.13;3.15;;;;;;;24.33;nan;-24491.81;4952095;29;20241;-64
2022/08/17 02:52:52;;;;;;;9.65;3.60;;;;;;;24.29;nan;-24490.84;4952793;29;20363;-65
2022/08/17 02:55:23;;;;;;;5.10;3.35;;;;;;;24.11;nan;-24485.88;4952891;28;20232;-65
2022/08/17 02:57:49;;;;;;;4.65;2.97;;;;;;;24.37;nan;-24493.03;4952559;29;20221;-63
2022/08/17 03:00:22;;;;;;;5.28;3.13;;;;;;;24.19;nan;-24488.22;4952636;29;20642;-61
2022/08/17 03:02:47;;;;;;;5.38;3.45;;;;;;;23.97;nan;-24482.00;4952930;29;20190;-63
2022/08/17 03:05:15;;;;;;;5.22;3.42;;;;;;;23.93;nan;-24480.91;4952644;29;20536;-62
2022/08/17 03:07:41;;;;;;;4.43;3.00;;;;;;;23.65;nan;-24473.47;4952985;29;20180;-65
2022/08/17 03:10:08;;;;;;;7.60;3.45;;;;;;;23.53;nan;-24470.16;4952375;28;20212;-65
2022/08/17 03:12:37;;;;;;;5.13;3.45;;;;;;;23.85;nan;-24478.69;4952621;29;20178;-63
2022/08/17 03:15:13;;;;;;;6.87;3.27;;;;;;;23.55;nan;-24470.56;4914760;29;1105175;-62
2022/08/17 03:17:39;;;;;;;5.82;3.60;;;;;;;23.78;nan;-24476.91;4953245;29;20315;-64
2022/08/17 03:20:06;;;;;;;5.07;3.35;;;;;;;23.64;nan;-24473.19;4953073;29;20208;-62
2022/08/17 03:22:43;;;;;;;5.43;3.40;;;;;;;23.30;nan;-24463.78;4952895;29;20261;-65
2022/08/17 03:25:11;;;;;;;6.05;3.42;;;;;;;23.31;nan;-24464.19;4952897;29;20178;-61
2022/08/17 03:27:38;;;;;;;6.85;4.22;;;;;;;23.52;nan;-24469.88;4953342;28;20701;-62
2022/08/17 03:30:05;;;;;;;6.25;4.03;;;;;;;23.43;nan;-24467.38;4953492;29;20178;-63
2022/08/17 03:32:37;;;;;;;5.63;3.50;;;;;;;23.30;nan;-24463.94;4953324;29;20228;-61
2022/08/17 03:35:02;;;;;;;5.47;3.80;;;;;;;23.32;nan;-24464.34;4948746;29;20216;-64
2022/08/17 03:37:28;;;;;;;6.82;4.07;;;;;;;23.01;nan;-24455.78;4947038;29;20245;-64
2022/08/17 03:39:53;;;;;;;5.97;3.53;;;;;;;23.24;nan;-24462.28;4946254;29;20174;-65
2022/08/17 03:42:22;;;;;;;6.38;3.92;;;;;;;22.93;nan;-24453.72;4946781;29;20519;-64
2022/08/17 03:44:49;;;;;;;5.82;3.65;;;;;;;23.31;nan;-24464.06;4945934;29;20186;-63
2022/08/17 03:58:10;;;;;;;5.35;3.53;;;;;;;23.26;nan;-24462.81;4946912;28;20213;-63
2022/08/17 04:00:36;;;;;;;8.43;3.75;;;;;;;23.69;nan;-24474.44;4949684;29;20178;-62
2022/08/17 04:03:02;;;;;;;5.65;3.50;;;;;;;24.53;nan;-24497.31;4950345;29;20192;-65
2022/08/17 04:05:29;;;;;;;6.22;3.85;;;;;;;25.31;nan;-24518.66;4949705;28;20236;-64
2022/08/17 04:07:55;;;;;;;5.20;3.22;;;;;;;25.89;nan;-24534.34;4949487;29;20182;-65
2022/08/17 04:10:20;;;;;;;6.15;3.60;;;;;;;26.28;nan;-24545.06;4950108;29;20269;-64
2022/08/17 04:12:49;;;;;;;7.45;3.33;;;;;;;26.47;nan;-24550.16;4947997;28;20761;-62
2022/08/17 04:15:15;;;;;;;5.40;3.38;;;;;;;27.31;nan;-24572.78;4949337;29;20226;-62
2022/08/17 04:17:43;;;;;;;4.60;3.30;;;;;;;27.23;nan;-24570.75;4951984;29;20750;-64
2022/08/17 04:20:13;;;;;;;6.18;3.45;;;;;;;27.78;nan;-24585.53;4955759;29;20198;-65
2022/08/17 04:22:53;;;;;;;6.35;4.10;;;;;;;28.30;nan;-24599.78;4951512;29;20221;-64
2022/08/17 04:25:20;;;;;;;6.65;3.50;;;;;;;28.51;nan;-24605.53;4954156;29;20182;-66
2022/08/17 04:27:47;;;;;;;5.70;3.40;;;;;;;28.82;nan;-24613.72;4954721;29;20204;-65
2022/08/17 04:30:13;;;;;;;6.32;3.75;;;;;;;29.77;nan;-24639.53;4955668;29;20321;-64
2022/08/17 04:32:57;;;;;;;4.95;3.00;;;;;;;30.17;nan;-24650.31;4955705;29;20555;-67
2022/08/17 04:35:38;;;;;;;4.38;2.97;;;;;;;29.38;nan;-24629.03;4955621;29;20178;-66
2022/08/17 04:38:06;;;;;;;5.03;3.30;;;;;;;28.78;nan;-24612.63;4955050;29;20199;-68
2022/08/17 04:43:19;;;;;;;4.93;3.15;;;;;;;27.98;nan;-24591.16;4955164;29;20209;-66
2022/08/17 04:45:53;;;;;;;4.03;2.75;;;;;;;27.40;nan;-24575.25;4953830;28;20192;-64
2022/08/17 04:48:19;;;;;;;7.30;4.32;;;;;;;27.26;nan;-24571.56;4954627;28;20509;-66
2022/08/17 04:50:46;;;;;;;7.13;3.42;;;;;;;27.62;nan;-24581.44;4954873;28;20548;-65
2022/08/17 04:53:13;;;;;;;4.00;3.00;;;;;;;27.28;nan;-24571.97;4963554;28;20173;-64
2022/08/17 04:55:39;;;;;;;5.63;3.40;;;;;;;27.64;nan;-24581.84;4973861;28;20220;-64
2022/08/17 04:58:06;;;;;;;5.13;3.38;;;;;;;27.87;nan;-24588.13;4955648;28;20209;-63
2022/08/17 05:00:32;;;;;;;4.85;3.30;;;;;;;27.93;nan;-24589.78;4954312;29;20209;-63
2022/08/17 05:02:58;;;;;;;7.38;3.38;;;;;;;27.66;nan;-24582.38;4954464;29;20182;-62
2022/08/17 05:05:30;;;;;;;5.13;3.33;;;;;;;27.36;nan;-24574.31;4954730;29;20185;-63
2022/08/17 05:07:59;;;;;;;4.63;3.00;;;;;;;27.70;nan;-24583.47;4957441;28;20182;-64
2022/08/17 05:10:27;;;;;;;5.03;3.42;;;;;;;27.12;nan;-24567.84;4965897;28;20186;-63
2022/08/17 05:13:02;;;;;;;5.78;3.17;;;;;;;26.79;nan;-24558.78;4946155;28;20198;-62
2022/08/17 05:15:28;;;;;;;4.78;3.00;;;;;;;25.97;nan;-24536.56;4944615;29;20320;-62
2022/08/17 05:17:53;;;;;;;5.97;3.28;;;;;;;26.09;nan;-24539.84;4931914;29;20307;-64
2022/08/17 05:20:19;;;;;;;6.68;4.00;;;;;;;26.17;nan;-24541.91;4949231;29;20633;-64
2022/08/17 05:22:54;;;;;;;4.38;3.47;;;;;;;26.32;nan;-24546.03;4949396;29;20233;-62
2022/08/17 05:25:28;;;;;;;5.65;3.38;;;;;;;26.48;nan;-24550.28;4947979;29;20289;-64
2022/08/17 05:27:53;;;;;;;5.03;2.75;;;;;;;26.43;nan;-24549.06;4949916;29;20200;-64
2022/08/17 05:30:20;;;;;;;5.97;3.15;;;;;;;26.63;nan;-24554.41;4948736;29;20304;-62
2022/08/17 05:32:57;;;;;;;6.53;3.30;;;;;;;26.83;nan;-24559.91;4949745;29;20213;-62
2022/08/17 05:35:25;;;;;;;6.07;3.67;;;;;;;27.04;nan;-24565.53;4953719;29;20189;-64
2022/08/17 05:37:50;;;;;;;6.85;3.30;;;;;;;26.76;nan;-24557.97;4953977;29;20296;-65
2022/08/17 05:40:17;;;;;;;4.90;3.30;;;;;;;26.73;nan;-24557.28;4951023;29;20734;-64
2022/08/17 05:42:43;;;;;;;6.65;4.00;;;;;;;26.77;nan;-24558.25;4950834;29;20186;-63
2022/08/17 05:45:09;;;;;;;7.32;3.63;;;;;;;26.78;nan;-24558.53;4952520;29;20541;-61
2022/08/17 05:47:39;;;;;;;7.22;3.10;;;;;;;26.84;nan;-24560.16;4953940;29;20195;-61
2022/08/17 05:50:07;;;;;;;6.20;3.50;;;;;;;26.86;nan;-24560.72;4950069;28;20237;-63
2022/08/17 05:52:57;;;;;;;5.57;3.28;;;;;;;27.11;nan;-24567.44;4951559;29;20327;-65
2022/08/17 05:55:48;;;;;;;4.60;3.10;;;;;;;27.18;nan;-24569.50;4953493;29;20186;-62
2022/08/17 05:58:25;;;;;;;4.82;2.85;;;;;;;27.04;nan;-24565.66;4953661;29;20221;-65
2022/08/17 06:01:10;;;;;;;5.30;3.20;;;;;;;27.49;nan;-24577.88;4954217;29;20216;-61
2022/08/17 06:04:10;;;;;;;4.72;3.08;;;;;;;27.74;nan;-24584.59;4953841;29;20178;-63
2022/08/17 06:07:00;;;;;;;5.70;3.60;;;;;;;27.56;nan;-24579.78;4953413;29;20257;-62
2022/08/17 06:09:48;;;;;;;6.93;3.25;;;;;;;27.76;nan;-24585.00;4953526;29;20170;-63
2022/08/17 06:12:38;;;;;;;4.80;2.90;;;;;;;27.78;nan;-24585.69;4968655;28;20170;-65
2022/08/17 06:15:25;;;;;;;4.43;2.92;;;;;;;28.14;nan;-24595.25;4953996;29;20166;-62
2022/08/17 06:17:55;;;;;;;6.53;3.17;;;;;;;28.06;nan;-24593.34;4953339;29;20565;-64
2022/08/17 06:20:22;;;;;;;3.70;2.72;;;;;;;27.63;nan;-24581.56;4953720;28;20592;-64
2022/08/17 06:22:52;;;;;;;6.40;3.22;;;;;;;28.03;nan;-24592.53;4953534;29;20177;-61
2022/08/17 06:25:32;;;;;;;4.05;3.05;;;;;;;27.93;nan;-24589.78;4953531;29;20174;-64
2022/08/17 06:28:26;;;;;;;4.68;2.85;;;;;;;28.19;nan;-24596.63;4953662;29;20190;-62
2022/08/17 06:30:56;;;;;;;6.78;3.78;;;;;;;28.23;nan;-24597.72;4953342;29;20182;-64
2022/08/17 06:33:33;;;;;;;6.65;3.42;;;;;;;27.87;nan;-24588.13;4953559;29;20665;-64
2022/08/17 06:36:17;;;;;;;4.95;3.28;;;;;;;28.40;nan;-24602.38;4953228;29;20165;-63
2022/08/17 06:38:57;;;;;;;4.07;2.90;;;;;;;27.98;nan;-24591.16;4952969;29;20209;-65
2022/08/17 06:41:35;;;;;;;6.38;2.83;;;;;;;28.68;nan;-24609.91;4953444;29;20224;-63
2022/08/17 06:44:17;;;;;;;5.55;3.20;;;;;;;28.74;nan;-24611.69;4953317;29;20541;-62
2022/08/17 06:46:47;;;;;;;4.82;3.10;;;;;;;28.67;nan;-24609.63;4953056;29;20162;-64
2022/08/17 06:49:41;;;;;;;4.80;3.13;;;;;;;28.64;nan;-24608.94;4953350;29;20182;-63
2022/08/17 06:52:23;;;;;;;5.25;2.90;;;;;;;28.77;nan;-24612.38;4953247;29;20225;-62
2022/08/17 06:54:59;;;;;;;4.68;3.40;;;;;;;28.96;nan;-24617.69;4953249;29;20522;-66
2022/08/17 06:57:30;;;;;;;5.68;3.60;;;;;;;29.10;nan;-24621.38;4951927;28;20343;-61
2022/08/17 07:00:12;;;;;;;5.32;3.60;;;;;;;29.12;nan;-24621.78;4945076;29;20185;-61
2022/08/17 07:03:01;;;;;;;4.05;2.70;;;;;;;29.58;nan;-24634.34;4953061;29;20213;-64
2022/08/17 07:05:35;;;;;;;5.05;3.15;;;;;;;29.43;nan;-24630.25;4952233;29;20202;-63
2022/08/17 07:08:15;;;;;;;4.28;3.03;;;;;;;29.72;nan;-24638.03;4953184;29;20172;-62
2022/08/17 07:10:49;;;;;;;4.28;3.00;;;;;;;29.44;nan;-24630.53;4953241;29;20174;-62
2022/08/17 07:13:28;;;;;;;7.75;3.20;;;;;;;29.31;nan;-24627.13;4952882;29;20174;-63
2022/08/17 07:16:05;;;;;;;7.90;3.35;;;;;;;29.32;nan;-24627.41;4952941;29;20291;-63
2022/08/17 07:18:32;;;;;;;8.90;3.03;;;;;;;29.60;nan;-24634.91;4952887;29;20363;-62
2022/08/17 07:21:08;;;;;;;4.18;3.00;;;;;;;29.47;nan;-24631.34;4952962;29;20638;-63
2022/08/17 07:23:49;;;;;;;6.28;3.08;;;;;;;29.11;nan;-24621.66;4952712;29;20178;-62
2022/08/17 07:26:14;;;;;;;6.15;3.17;;;;;;;29.58;nan;-24634.22;4953050;29;20199;-62
2022/08/17 07:28:42;;;;;;;8.30;5.20;;;;;;;29.44;nan;-24630.41;4952669;29;20240;-64
2022/08/17 07:31:08;;;;;;;26.27;13.65;;;;;;;29.40;nan;-24629.44;4935759;29;20610;-64
2022/08/17 07:33:35;;;;;;;12.63;7.40;;;;;;;29.41;nan;-24629.72;4955387;28;20170;-64
2022/08/17 07:36:01;;;;;;;19.10;11.75;;;;;;;29.93;nan;-24643.78;4956393;28;20188;-65
2022/08/17 07:38:31;;;;;;;38.15;22.80;;;;;;;30.08;nan;-24647.88;4956142;29;20197;-65
2022/08/17 07:41:00;;;;;;;34.97;21.17;;;;;;;30.10;nan;-24648.28;4956495;29;20178;-64
2022/08/17 07:43:38;;;;;;;119.43;63.25;;;;;;;30.03;nan;-24646.38;4954137;28;20198;-63
2022/08/17 07:49:02;;;;;;;72.22;37.90;;;;;;;30.33;nan;-24654.53;4956823;29;20570;-69
2022/08/17 07:51:35;;;;;;;79.40;43.17;;;;;;;30.43;nan;-24657.13;4956421;28;20240;-62
2022/08/17 07:54:21;;;;;;;29.10;16.17;;;;;;;30.40;nan;-24656.31;4956335;28;20174;-63
2022/08/17 07:57:00;;;;;;;17.27;10.25;;;;;;;30.44;nan;-24657.41;4956387;28;20158;-64
2022/08/17 07:59:36;;;;;;;15.88;9.55;;;;;;;30.81;nan;-24667.34;4956568;29;20249;-64
2022/08/17 08:02:14;;;;;;;39.85;22.48;;;;;;;30.60;nan;-24661.91;4956200;28;20683;-66
2022/08/17 08:04:46;;;;;;;141.98;73.38;;;;;;;30.89;nan;-24669.53;4955577;28;20208;-63
2022/08/17 08:07:24;;;;;;;91.15;48.70;;;;;;;30.88;nan;-24669.25;4956021;28;20176;-66
2022/08/17 08:10:12;;;;;;;57.85;32.70;;;;;;;31.05;nan;-24674.03;4956247;28;20180;-62
2022/08/17 08:12:59;;;;;;;42.70;22.55;;;;;;;31.02;nan;-24673.06;4956108;28;20176;-65
2022/08/17 08:15:52;;;;;;;11.68;7.85;;;;;;;30.96;nan;-24671.44;4954131;28;20730;-66
2022/08/17 08:18:32;;;;;;;49.65;23.90;;;;;;;31.13;nan;-24676.06;4955842;28;20201;-62
2022/08/17 08:21:08;;;;;;;38.63;19.70;;;;;;;30.85;nan;-24668.56;4955336;28;20162;-62
2022/08/17 08:23:42;;;;;;;36.22;20.35;;;;;;;31.18;nan;-24677.41;4955395;28;20161;-64
2022/08/17 08:26:49;;;;;;;10.23;6.28;;;;;;;31.18;nan;-24677.41;4955790;28;20188;-62
2022/08/17 08:29:39;;;;;;;12.18;7.25;;;;;;;31.21;nan;-24678.25;4953253;28;20660;-64
2022/08/17 08:32:38;;;;;;;51.60;25.73;;;;;;;31.30;nan;-24680.56;4954730;29;20213;-65
2022/08/17 08:35:21;;;;;;;44.00;22.50;;;;;;;31.46;nan;-24684.91;4954866;29;20248;-66
2022/08/17 08:37:55;;;;;;;28.52;15.93;;;;;;;31.63;nan;-24689.53;4955488;29;20720;-63
2022/08/17 08:41:06;;;;;;;76.15;37.67;;;;;;;31.79;nan;-24693.88;4955272;29;20255;-66
2022/08/17 08:43:40;;;;;;;45.33;22.63;;;;;;;31.78;nan;-24693.59;4952281;28;20672;-64
2022/08/17 08:46:33;;;;;;;42.13;20.88;;;;;;;31.72;nan;-24691.84;4954672;29;20181;-62
2022/08/17 08:49:24;;;;;;;31.77;16.77;;;;;;;31.81;nan;-24694.28;4926190;29;20543;-64
2022/08/17 08:51:56;;;;;;;17.98;9.68;;;;;;;31.57;nan;-24687.91;4955114;29;20161;-65
2022/08/17 08:54:46;;;;;;;14.35;8.98;;;;;;;31.43;nan;-24684.09;4955124;29;20182;-62
2022/08/17 08:57:17;;;;;;;10.25;5.15;;;;;;;31.94;nan;-24697.94;4955326;29;20649;-66
2022/08/17 09:00:13;;;;;;;12.32;7.38;;;;;;;32.05;nan;-24700.66;4954836;29;20537;-63
2022/08/17 09:02:57;;;;;;;26.33;13.90;;;;;;;32.35;nan;-24708.94;4954431;29;20178;-62
2022/08/17 09:05:31;;;;;;;23.35;11.95;;;;;;;32.26;nan;-24706.50;4953823;29;20256;-65
2022/08/17 09:07:57;;;;;;;59.80;28.30;;;;;;;32.30;nan;-24707.47;4954540;29;20177;-65
2022/08/17 09:10:29;;;;;;;30.90;15.80;;;;;;;32.41;nan;-24710.56;4954768;29;20692;-62
2022/08/17 09:13:20;;;;;;;25.85;12.50;;;;;;;32.60;nan;-24715.47;4955002;29;20181;-62
2022/08/17 09:15:56;;;;;;;7.43;4.30;;;;;;;32.76;nan;-24719.94;4953966;29;20630;-62
2022/08/17 09:18:27;;;;;;;9.70;5.65;;;;;;;32.86;nan;-24722.66;4953918;29;20623;-67
2022/08/17 09:21:16;;;;;;;8.50;4.70;;;;;;;32.50;nan;-24712.88;4954693;29;20240;-65
2022/08/17 09:24:03;;;;;;;11.18;5.82;;;;;;;32.50;nan;-24712.88;4954718;29;20172;-64
2022/08/17 09:26:38;;;;;;;19.15;7.95;;;;;;;32.62;nan;-24716.00;4954519;29;20248;-63
2022/08/17 09:29:08;;;;;;;22.20;10.00;;;;;;;32.81;nan;-24721.16;4954389;29;20192;-66
2022/08/17 09:31:42;;;;;;;21.75;11.43;;;;;;;33.03;nan;-24727.13;4954243;29;20172;-66
2022/08/17 09:34:13;;;;;;;14.30;6.38;;;;;;;33.04;nan;-24727.41;4954075;29;20652;-65
2022/08/17 09:36:55;;;;;;;6.72;3.85;;;;;;;32.74;nan;-24719.25;4954616;29;20846;-60
2022/08/17 09:39:32;;;;;;;5.68;4.00;;;;;;;32.97;nan;-24725.50;4954497;29;20244;-63
2022/08/17 09:42:39;;;;;;;9.70;5.72;;;;;;;33.14;nan;-24729.97;4954204;29;20193;-63
2022/08/17 09:45:30;;;;;;;7.90;4.05;;;;;;;32.74;nan;-24719.25;4950396;29;20192;-64
2022/08/17 09:48:17;;;;;;;6.68;3.63;;;;;;;33.01;nan;-24726.44;4954085;29;20268;-64
2022/08/17 09:50:57;;;;;;;7.15;3.97;;;;;;;33.08;nan;-24728.34;4953957;29;20683;-62
2022/08/17 09:53:22;;;;;;;10.90;6.47;;;;;;;33.11;nan;-24729.28;4954059;29;20201;-63
2022/08/17 09:56:05;;;;;;;7.18;3.83;;;;;;;33.19;nan;-24731.47;4953701;28;20264;-65
2022/08/17 09:59:04;;;;;;;9.48;5.22;;;;;;;33.28;nan;-24733.91;4953046;29;20687;-63
2022/08/17 10:01:45;;;;;;;12.75;5.80;;;;;;;33.05;nan;-24727.53;4954204;29;20169;-60
2022/08/17 10:04:31;;;;;;;5.32;3.25;;;;;;;33.14;nan;-24730.09;4953236;29;20177;-64
2022/08/17 10:06:59;;;;;;;5.22;3.80;;;;;;;33.17;nan;-24730.78;4953403;29;20169;-61
2022/08/17 10:09:47;;;;;;;5.30;3.25;;;;;;;33.04;nan;-24727.25;4953387;29;20205;-65
2022/08/17 10:12:21;;;;;;;5.88;3.65;;;;;;;33.32;nan;-24734.72;4953480;29;20173;-61
2022/08/17 10:15:05;;;;;;;5.30;3.17;;;;;;;33.29;nan;-24734.16;4953405;29;20592;-66
2022/08/17 10:17:38;;;;;;;4.97;3.63;;;;;;;33.18;nan;-24731.19;4953057;29;20201;-62
2022/08/17 10:20:09;;;;;;;7.47;4.30;;;;;;;33.22;nan;-24732.13;4952671;29;20161;-64
2022/08/17 10:28:24;;;;;;;8.05;4.10;;;;;;;33.36;nan;-24735.78;4954055;29;20212;-64
2022/08/17 10:30:54;;;;;;;7.30;3.90;;;;;;;33.53;nan;-24740.53;4953796;29;20228;-66
2022/08/17 10:33:25;;;;;;;7.13;3.78;;;;;;;33.24;nan;-24732.69;4954299;29;20170;-66
2022/08/17 10:36:10;;;;;;;4.43;3.20;;;;;;;33.69;nan;-24744.88;4954761;29;20177;-67
2022/08/17 10:38:46;;;;;;;4.35;2.60;;;;;;;33.63;nan;-24743.25;4953716;29;20245;-66
2022/08/17 10:41:27;;;;;;;7.45;3.95;;;;;;;33.80;nan;-24747.56;4954204;29;20541;-65
2022/08/17 10:44:01;;;;;;;8.82;4.95;;;;;;;33.66;nan;-24743.91;4954515;29;20173;-64
2022/08/17 10:47:04;;;;;;;8.77;3.90;;;;;;;33.91;nan;-24750.56;4954435;29;20204;-65
2022/08/17 10:49:32;;;;;;;6.40;3.33;;;;;;;33.75;nan;-24746.38;4954009;29;20168;-63
2022/08/17 10:52:20;;;;;;;5.07;3.20;;;;;;;33.66;nan;-24743.91;4953764;29;20648;-65
2022/08/17 10:54:47;;;;;;;5.60;3.55;;;;;;;33.91;nan;-24750.69;4953553;29;20169;-63
2022/08/17 10:57:35;;;;;;;5.32;3.40;;;;;;;34.12;nan;-24756.38;4953301;29;20527;-62
2022/08/17 11:00:19;;;;;;;5.68;2.80;;;;;;;33.92;nan;-24750.97;4953575;29;20188;-64
2022/08/17 11:02:48;;;;;;;5.68;3.30;;;;;;;34.07;nan;-24755.00;4953722;29;20602;-61
2022/08/17 11:05:23;;;;;;;4.32;2.70;;;;;;;34.20;nan;-24758.25;4952517;29;20260;-66
2022/08/17 11:08:19;;;;;;;3.95;3.03;;;;;;;34.13;nan;-24756.50;4970166;28;20184;-67
2022/08/17 11:11:03;;;;;;;3.40;2.75;;;;;;;34.31;nan;-24761.25;4957928;29;20173;-67
2022/08/17 11:13:41;;;;;;;4.82;3.25;;;;;;;34.23;nan;-24759.06;4957063;29;20274;-66
2022/08/17 11:16:22;;;;;;;4.72;3.20;;;;;;;34.31;nan;-24761.38;4957360;29;20217;-63
2022/08/17 11:19:08;;;;;;;3.25;2.40;;;;;;;34.15;nan;-24757.03;4957683;29;20641;-67
2022/08/17 11:21:42;;;;;;;4.28;3.08;;;;;;;34.24;nan;-24759.34;4957731;29;20268;-64
2022/08/17 11:24:16;;;;;;;5.53;2.70;;;;;;;34.23;nan;-24759.06;4957744;29;20184;-68
2022/08/17 11:26:59;;;;;;;4.53;2.90;;;;;;;34.28;nan;-24760.44;4955681;28;20328;-63
2022/08/17 11:29:49;;;;;;;4.25;2.67;;;;;;;34.30;nan;-24760.97;4956797;28;20201;-64
2022/08/17 11:32:48;;;;;;;4.13;2.95;;;;;;;34.29;nan;-24760.84;4956095;29;20236;-65
2022/08/17 11:35:20;;;;;;;3.58;2.50;;;;;;;34.41;nan;-24763.94;4956742;28;20170;-64
2022/08/17 11:38:17;;;;;;;3.65;2.55;;;;;;;33.90;nan;-24750.41;4956147;28;20223;-66
2022/08/17 11:40:51;;;;;;;5.28;3.22;;;;;;;34.30;nan;-24761.09;4956328;28;20256;-66
2022/08/17 11:43:40;;;;;;;4.32;2.97;;;;;;;34.62;nan;-24769.47;4955768;28;20177;-66
2022/08/17 11:46:22;;;;;;;4.32;2.58;;;;;;;34.51;nan;-24766.63;4956661;28;20177;-64
2022/08/17 11:51:59;;;;;;;5.13;2.80;;;;;;;34.52;nan;-24767.03;4956389;29;20229;-66
2022/08/17 11:54:46;;;;;;;4.43;2.75;;;;;;;34.54;nan;-24767.59;4956255;28;20245;-66
2022/08/17 11:57:41;;;;;;;3.70;2.45;;;;;;;34.43;nan;-24764.63;4956232;28;20173;-64
2022/08/17 12:00:44;;;;;;;4.63;3.17;;;;;;;34.39;nan;-24763.41;4952343;28;20644;-63
2022/08/17 12:03:33;;;;;;;3.75;2.60;;;;;;;34.63;nan;-24769.88;4954970;28;20194;-62
2022/08/17 12:06:09;;;;;;;4.25;2.50;;;;;;;34.38;nan;-24763.13;4956045;28;20722;-65
2022/08/17 12:08:42;;;;;;;3.85;2.55;;;;;;;34.49;nan;-24766.09;4956139;28;20173;-67
2022/08/17 12:11:23;;;;;;;3.60;2.58;;;;;;;34.42;nan;-24764.22;4956127;28;20158;-65
2022/08/17 12:13:56;;;;;;;3.85;2.60;;;;;;;34.83;nan;-24775.28;4954453;28;20181;-62
2022/08/17 12:16:21;;;;;;;3.35;2.50;;;;;;;34.77;nan;-24773.66;4955874;29;20241;-65
2022/08/17 12:18:51;;;;;;;3.65;2.55;;;;;;;35.01;nan;-24780.16;4954952;28;20208;-65
2022/08/17 12:21:29;;;;;;;4.28;2.78;;;;;;;34.79;nan;-24774.06;4955875;29;20281;-62
2022/08/17 12:23:57;;;;;;;4.25;2.53;;;;;;;35.09;nan;-24782.16;4955506;29;20185;-67
2022/08/17 12:26:30;;;;;;;4.38;2.60;;;;;;;35.21;nan;-24785.41;4955379;29;20166;-64
2022/08/17 12:29:03;;;;;;;2.60;2.30;;;;;;;34.97;nan;-24779.06;4955701;29;20188;-65
2022/08/17 12:31:34;;;;;;;2.70;2.15;;;;;;;34.68;nan;-24771.25;4954608;29;20185;-63
2022/08/17 12:34:03;;;;;;;3.80;2.50;;;;;;;34.95;nan;-24778.41;4956205;29;20177;-66
2022/08/17 12:36:30;;;;;;;3.30;2.63;;;;;;;34.79;nan;-24774.06;4956069;29;20185;-66
2022/08/17 12:39:06;;;;;;;4.40;2.80;;;;;;;35.10;nan;-24782.31;4955723;29;20197;-66